Time;durP1;ratioP1;P1;durP2;ratioP2;P2;SDS_P1;SDS_P2;PMS_P1;PMS_P2;Temp;Humidity;BMP_temperature;BMP_pressure;BME280_temperature;BME280_humidity;BME280_pressure;Samples;Min_cycle;Max_cycle;Signal;HPM_P1;HPM_P2
2021/11/27 00:01:07;;;;;;;40.53;22.95;;;4.00;99.90;;;;;;5025427;28;20057;-60
2021/11/27 00:03:33;;;;;;;43.05;24.23;;;4.10;99.90;;;;;;5030374;28;20092;-59
2021/11/27 00:06:00;;;;;;;42.97;24.60;;;4.10;99.90;;;;;;4994120;28;20501;-60
2021/11/27 00:08:27;;;;;;;41.90;24.02;;;4.00;99.90;;;;;;5018830;28;20049;-61
2021/11/27 00:11:00;;;;;;;40.90;23.58;;;4.10;99.90;;;;;;5030458;28;20045;-60
2021/11/27 00:13:27;;;;;;;39.40;23.27;;;4.00;99.90;;;;;;4984216;28;20037;-61
2021/11/27 00:15:54;;;;;;;48.95;24.67;;;4.00;99.90;;;;;;5001004;28;20065;-60
2021/11/27 00:18:22;;;;;;;50.28;26.23;;;4.00;99.90;;;;;;5034852;28;20088;-60
2021/11/27 00:20:51;;;;;;;41.72;23.38;;;4.10;99.90;;;;;;5012902;28;20424;-60
2021/11/27 00:23:18;;;;;;;45.92;23.67;;;4.00;99.90;;;;;;5031323;28;20045;-61
2021/11/27 00:25:45;;;;;;;44.30;24.85;;;4.00;99.90;;;;;;4997098;28;20053;-61
2021/11/27 00:28:11;;;;;;;43.65;24.85;;;4.00;99.90;;;;;;5012643;28;20764;-59
2021/11/27 00:30:39;;;;;;;40.97;23.50;;;4.10;99.90;;;;;;5019833;28;20104;-60
2021/11/27 00:33:06;;;;;;;43.55;24.25;;;4.10;99.90;;;;;;4999659;28;20049;-62
2021/11/27 00:35:32;;;;;;;48.55;24.75;;;4.10;99.90;;;;;;5021659;28;20527;-60
2021/11/27 00:38:00;;;;;;;49.90;25.15;;;4.10;99.90;;;;;;4965521;28;20060;-58
2021/11/27 00:40:27;;;;;;;46.08;24.10;;;4.10;99.90;;;;;;4995703;28;20073;-60
2021/11/27 00:42:54;;;;;;;53.38;25.20;;;4.10;99.90;;;;;;4981872;28;20435;-60
2021/11/27 00:45:22;;;;;;;48.33;23.80;;;4.10;99.90;;;;;;5013193;28;20075;-60
2021/11/27 00:47:52;;;;;;;52.75;25.90;;;4.10;99.90;;;;;;5011780;28;20049;-60
2021/11/27 00:50:25;;;;;;;48.80;24.00;;;4.10;99.90;;;;;;5012265;28;20132;-60
2021/11/27 00:52:51;;;;;;;49.88;25.65;;;4.10;99.90;;;;;;4984027;28;20555;-59
2021/11/27 00:55:18;;;;;;;49.33;25.17;;;4.10;99.90;;;;;;5031520;28;20045;-59
2021/11/27 00:57:47;;;;;;;47.97;24.27;;;4.10;99.90;;;;;;4996016;28;20104;-59
2021/11/27 01:00:17;;;;;;;44.05;23.90;;;4.10;99.90;;;;;;5012927;28;20092;-59
2021/11/27 01:02:46;;;;;;;49.75;24.90;;;4.00;99.90;;;;;;5011920;28;20057;-59
2021/11/27 01:05:20;;;;;;;47.05;23.50;;;4.00;99.90;;;;;;5013083;28;20554;-59
2021/11/27 01:07:47;;;;;;;51.55;25.08;;;4.10;99.90;;;;;;4997362;28;20053;-60
2021/11/27 01:10:19;;;;;;;41.97;24.17;;;4.10;99.90;;;;;;4995383;28;20045;-59
2021/11/27 01:12:45;;;;;;;49.28;25.17;;;4.10;99.90;;;;;;5012246;28;20501;-61
2021/11/27 01:15:14;;;;;;;49.05;25.83;;;4.00;99.90;;;;;;4996180;28;20103;-59
2021/11/27 01:17:40;;;;;;;48.45;25.92;;;4.10;99.90;;;;;;5019691;28;20061;-60
2021/11/27 01:20:09;;;;;;;53.60;26.20;;;4.10;99.90;;;;;;4979512;28;20057;-61
2021/11/27 01:22:35;;;;;;;55.05;26.80;;;4.10;99.90;;;;;;5011645;28;20053;-60
2021/11/27 01:25:02;;;;;;;45.30;25.38;;;4.00;99.90;;;;;;5010910;28;20041;-60
2021/11/27 01:27:28;;;;;;;48.83;25.83;;;4.10;99.90;;;;;;5013920;28;20496;-60
2021/11/27 01:29:54;;;;;;;46.70;24.98;;;4.10;99.90;;;;;;4995588;28;20045;-61
2021/11/27 01:32:21;;;;;;;49.45;27.00;;;4.10;99.90;;;;;;5011619;28;20072;-61
2021/11/27 01:34:49;;;;;;;48.05;25.52;;;4.10;99.90;;;;;;4978971;28;20419;-61
2021/11/27 01:37:16;;;;;;;46.72;26.25;;;4.10;99.90;;;;;;5012585;28;21003;-60
2021/11/27 01:39:44;;;;;;;51.22;27.27;;;4.10;99.90;;;;;;5011180;28;20099;-60
2021/11/27 01:42:12;;;;;;;52.65;26.90;;;4.20;99.90;;;;;;5029746;28;20072;-60
2021/11/27 01:44:38;;;;;;;49.40;27.52;;;4.10;99.90;;;;;;5015346;28;20044;-61
2021/11/27 01:47:06;;;;;;;54.58;28.90;;;4.10;99.90;;;;;;4980006;28;20107;-61
2021/11/27 01:49:32;;;;;;;48.10;26.17;;;4.10;99.90;;;;;;4976755;28;20050;-61
2021/11/27 01:51:59;;;;;;;44.28;26.52;;;4.10;99.90;;;;;;4979607;28;20060;-61
2021/11/27 01:54:26;;;;;;;46.50;28.52;;;4.10;99.90;;;;;;4996563;28;20053;-60
2021/11/27 01:56:57;;;;;;;48.60;27.30;;;4.10;99.90;;;;;;4995127;28;20241;-60
2021/11/27 01:59:26;;;;;;;50.72;28.90;;;4.10;99.90;;;;;;4995378;28;20469;-61
2021/11/27 02:01:53;;;;;;;52.95;28.42;;;4.10;99.90;;;;;;4995525;28;20140;-61
2021/11/27 02:04:25;;;;;;;51.67;30.20;;;4.10;99.90;;;;;;5012814;28;20094;-60
2021/11/27 02:06:51;;;;;;;53.15;28.15;;;4.10;99.90;;;;;;4995160;28;20064;-61
2021/11/27 02:09:24;;;;;;;57.95;29.90;;;4.10;99.90;;;;;;5011868;28;20409;-60
2021/11/27 02:11:52;;;;;;;51.80;29.70;;;4.10;99.90;;;;;;4978377;28;20061;-59
2021/11/27 02:14:19;;;;;;;49.28;27.70;;;4.10;99.90;;;;;;5025763;28;20049;-60
2021/11/27 02:17:15;;;;;;;49.63;29.33;;;4.10;99.90;;;;;;5022272;28;20041;-62
2021/11/27 02:19:44;;;;;;;53.90;29.75;;;4.10;99.90;;;;;;4993798;28;20134;-62
2021/11/27 02:22:10;;;;;;;47.25;27.42;;;4.10;99.90;;;;;;5011372;28;20491;-61
2021/11/27 02:24:45;;;;;;;52.05;30.20;;;4.10;99.90;;;;;;4994060;28;20049;-61
2021/11/27 02:27:13;;;;;;;49.58;29.98;;;4.10;99.90;;;;;;5014967;28;20041;-59
2021/11/27 02:29:39;;;;;;;52.85;28.65;;;4.10;99.90;;;;;;5010930;28;20056;-60
2021/11/27 02:32:06;;;;;;;51.08;29.60;;;4.10;99.90;;;;;;5028934;28;20049;-60
2021/11/27 02:34:34;;;;;;;54.42;30.48;;;4.10;99.90;;;;;;5010431;28;20081;-59
2021/11/27 02:37:03;;;;;;;55.15;30.25;;;4.10;99.90;;;;;;5028359;28;20049;-60
2021/11/27 02:39:32;;;;;;;52.78;31.65;;;4.10;99.90;;;;;;5027666;28;20562;-59
2021/11/27 02:41:59;;;;;;;55.75;31.83;;;4.10;99.90;;;;;;4978336;28;20057;-60
2021/11/27 02:44:29;;;;;;;57.45;31.88;;;4.10;99.90;;;;;;4980054;28;20104;-59
2021/11/27 02:46:56;;;;;;;61.63;32.53;;;4.10;99.90;;;;;;4994872;28;20060;-61
2021/11/27 02:49:22;;;;;;;59.00;32.33;;;4.10;99.90;;;;;;5029847;28;20095;-60
2021/11/27 02:51:49;;;;;;;66.45;35.38;;;4.10;99.90;;;;;;5006495;28;20116;-60
2021/11/27 02:54:16;;;;;;;58.30;32.58;;;4.10;99.90;;;;;;5007299;28;20077;-60
2021/11/27 02:56:44;;;;;;;58.70;33.00;;;4.10;99.90;;;;;;4978560;28;20085;-60
2021/11/27 02:59:16;;;;;;;60.40;33.05;;;4.10;99.90;;;;;;5003609;28;20051;-59
2021/11/27 03:01:45;;;;;;;58.30;33.20;;;4.10;99.90;;;;;;4991020;28;20384;-58
2021/11/27 03:04:12;;;;;;;55.60;32.80;;;4.10;99.90;;;;;;5007929;28;20049;-58
2021/11/27 03:06:41;;;;;;;61.90;33.55;;;4.10;99.90;;;;;;4991564;28;20054;-59
2021/11/27 03:09:09;;;;;;;60.92;33.88;;;4.10;99.90;;;;;;4991334;28;20108;-62
2021/11/27 03:11:36;;;;;;;62.42;35.90;;;4.10;99.90;;;;;;4975036;28;20074;-59
2021/11/27 03:14:03;;;;;;;55.70;34.22;;;4.10;99.90;;;;;;5022175;28;20134;-59
2021/11/27 03:16:32;;;;;;;64.68;33.78;;;4.10;99.90;;;;;;5010715;28;20080;-63
2021/11/27 03:18:59;;;;;;;58.20;33.28;;;4.20;99.90;;;;;;5012173;28;20796;-62
2021/11/27 03:21:26;;;;;;;56.65;34.40;;;4.20;99.90;;;;;;4995957;28;20060;-61
2021/11/27 03:23:52;;;;;;;52.33;32.10;;;4.20;99.90;;;;;;5012773;28;20058;-62
2021/11/27 03:26:18;;;;;;;49.58;31.58;;;4.20;99.90;;;;;;4994400;28;20049;-62
2021/11/27 03:28:46;;;;;;;52.17;31.75;;;4.20;99.90;;;;;;5010045;28;20180;-61
2021/11/27 03:31:14;;;;;;;52.45;33.92;;;4.20;99.90;;;;;;5011933;28;20046;-62
2021/11/27 03:33:40;;;;;;;66.75;35.10;;;4.20;99.90;;;;;;4994535;28;20077;-61
2021/11/27 03:36:08;;;;;;;49.78;32.60;;;4.20;99.90;;;;;;4978301;28;20409;-60
2021/11/27 03:38:38;;;;;;;64.20;34.30;;;4.30;99.90;;;;;;5010455;28;20049;-60
2021/11/27 03:41:05;;;;;;;55.70;34.47;;;4.30;99.90;;;;;;4977812;28;20069;-62
2021/11/27 03:43:32;;;;;;;53.00;32.90;;;4.30;99.90;;;;;;5011885;28;20425;-61
2021/11/27 03:46:00;;;;;;;50.95;31.30;;;4.30;99.90;;;;;;5014474;28;20767;-62
2021/11/27 03:48:28;;;;;;;53.40;33.00;;;4.40;99.90;;;;;;5008608;28;20061;-61
2021/11/27 03:51:26;;;;;;;54.03;31.40;;;4.30;99.90;;;;;;4999522;28;20089;-62
2021/11/27 03:53:53;;;;;;;47.85;29.55;;;4.30;99.90;;;;;;5009455;28;20091;-61
2021/11/27 03:56:25;;;;;;;46.33;29.25;;;4.30;99.90;;;;;;5009143;28;20153;-60
2021/11/27 03:58:52;;;;;;;51.80;32.15;;;4.40;99.90;;;;;;5010111;28;20058;-60
2021/11/27 04:01:20;;;;;;;54.08;33.10;;;4.30;99.90;;;;;;5010781;28;20095;-62
2021/11/27 04:03:50;;;;;;;55.60;32.65;;;4.30;99.90;;;;;;5010381;28;20077;-62
2021/11/27 04:06:17;;;;;;;57.35;33.55;;;4.30;99.90;;;;;;4993818;28;20045;-61
2021/11/27 04:08:46;;;;;;;53.78;33.35;;;4.30;99.90;;;;;;5010017;28;20533;-61
2021/11/27 04:11:13;;;;;;;51.38;31.77;;;4.30;99.90;;;;;;4977851;28;20050;-61
2021/11/27 04:13:39;;;;;;;54.72;33.88;;;4.30;99.90;;;;;;5010362;28;20065;-61
2021/11/27 04:16:07;;;;;;;52.60;32.03;;;4.40;99.90;;;;;;4993920;28;20056;-62
2021/11/27 04:18:33;;;;;;;49.75;33.35;;;4.30;99.90;;;;;;4993255;28;20105;-61
2021/11/27 04:21:00;;;;;;;51.08;31.33;;;4.30;99.90;;;;;;5009120;28;20037;-60
2021/11/27 04:23:27;;;;;;;53.67;32.72;;;4.30;99.90;;;;;;5009546;28;20062;-61
2021/11/27 04:25:55;;;;;;;55.00;32.45;;;4.30;99.90;;;;;;5011234;28;20046;-61
2021/11/27 04:28:21;;;;;;;60.10;33.20;;;4.30;99.90;;;;;;5009437;28;20058;-61
2021/11/27 04:30:47;;;;;;;46.95;29.67;;;4.30;99.90;;;;;;5009177;28;20529;-61
2021/11/27 04:33:14;;;;;;;45.30;28.95;;;4.30;99.90;;;;;;5008207;28;20117;-61
2021/11/27 04:35:59;;;;;;;48.63;28.58;;;4.30;99.90;;;;;;4994983;28;20417;-61
2021/11/27 04:38:32;;;;;;;45.22;28.23;;;4.30;99.90;;;;;;4992977;28;20057;-62
2021/11/27 04:40:58;;;;;;;42.72;27.63;;;4.30;99.90;;;;;;4993504;28;20128;-61
2021/11/27 04:43:24;;;;;;;51.35;28.52;;;4.30;99.90;;;;;;5010894;28;20164;-62
2021/11/27 04:45:51;;;;;;;44.88;27.52;;;4.30;99.90;;;;;;4994938;28;20505;-61
2021/11/27 04:48:21;;;;;;;44.75;26.50;;;4.30;99.90;;;;;;5012319;28;20488;-61
2021/11/27 04:50:49;;;;;;;46.15;29.30;;;4.30;99.90;;;;;;4976920;28;20062;-62
2021/11/27 04:53:17;;;;;;;47.30;29.02;;;4.30;99.90;;;;;;5005890;28;20050;-61
2021/11/27 04:55:44;;;;;;;46.33;27.65;;;4.30;99.90;;;;;;5009774;28;20122;-62
2021/11/27 04:58:13;;;;;;;46.78;27.85;;;4.30;99.90;;;;;;4978945;28;20054;-61
2021/11/27 05:00:47;;;;;;;51.55;27.45;;;4.30;99.90;;;;;;5009564;28;20057;-61
2021/11/27 05:03:15;;;;;;;48.00;27.50;;;4.30;99.90;;;;;;5008517;28;20056;-62
2021/11/27 05:05:41;;;;;;;50.95;27.85;;;4.30;99.90;;;;;;5010751;28;20448;-62
2021/11/27 05:08:08;;;;;;;48.42;28.17;;;4.30;99.90;;;;;;5009071;28;20551;-62
2021/11/27 05:10:35;;;;;;;57.42;28.77;;;4.30;99.90;;;;;;5010900;28;20548;-61
2021/11/27 05:13:02;;;;;;;49.38;28.63;;;4.30;99.90;;;;;;5008827;28;20500;-61
2021/11/27 05:15:30;;;;;;;51.80;30.05;;;4.30;99.90;;;;;;5007186;28;20084;-60
2021/11/27 05:18:00;;;;;;;50.53;28.42;;;4.30;99.90;;;;;;5009478;28;20050;-61
2021/11/27 05:20:59;;;;;;;47.38;26.75;;;4.30;99.90;;;;;;5011252;28;20041;-61
2021/11/27 05:23:26;;;;;;;49.85;26.95;;;4.30;99.90;;;;;;4976450;28;20117;-61
2021/11/27 05:25:53;;;;;;;56.47;29.23;;;4.30;99.90;;;;;;4982765;28;20528;-61
2021/11/27 05:28:38;;;;;;;48.22;27.42;;;4.30;99.90;;;;;;4991047;28;20049;-60
2021/11/27 05:31:41;;;;;;;57.65;28.23;;;4.30;99.90;;;;;;4990325;28;20050;-61
2021/11/27 05:36:39;;;;;;;64.65;30.10;;;4.30;99.90;;;;;;5007590;28;20048;-61
2021/11/27 05:39:06;;;;;;;65.38;29.75;;;4.20;99.90;;;;;;5009406;28;20054;-61
2021/11/27 05:41:32;;;;;;;44.85;26.67;;;4.30;99.90;;;;;;4961043;28;20081;-61
2021/11/27 05:43:59;;;;;;;53.83;28.23;;;4.20;99.90;;;;;;4964331;28;20116;-60
2021/11/27 05:46:26;;;;;;;62.88;28.30;;;4.20;99.90;;;;;;5017574;28;20080;-60
2021/11/27 05:48:52;;;;;;;61.47;28.60;;;4.20;99.90;;;;;;5007907;28;20073;-61
2021/11/27 05:51:30;;;;;;;59.95;28.05;;;4.30;99.90;;;;;;5026679;28;20054;-60
2021/11/27 05:53:57;;;;;;;54.00;27.40;;;4.30;99.90;;;;;;5029098;28;20475;-61
2021/11/27 05:56:23;;;;;;;54.75;26.75;;;4.30;99.90;;;;;;5028343;28;20141;-60
2021/11/27 05:58:49;;;;;;;48.78;25.83;;;4.30;99.90;;;;;;4996277;28;20049;-60
2021/11/27 06:01:16;;;;;;;50.67;26.35;;;4.30;99.90;;;;;;5029511;28;20053;-61
2021/11/27 06:03:42;;;;;;;52.92;26.42;;;4.30;99.90;;;;;;4994766;28;20089;-61
2021/11/27 06:06:08;;;;;;;54.03;27.88;;;4.30;99.90;;;;;;4993540;28;20497;-61
2021/11/27 06:08:34;;;;;;;57.00;28.17;;;4.30;99.90;;;;;;5029373;28;20115;-60
2021/11/27 06:11:00;;;;;;;56.42;27.30;;;4.30;99.90;;;;;;5029975;28;20099;-61
2021/11/27 06:13:26;;;;;;;61.10;26.85;;;4.30;99.90;;;;;;5030795;28;20057;-60
2021/11/27 06:15:52;;;;;;;56.42;28.63;;;4.30;99.90;;;;;;4991554;28;20046;-61
2021/11/27 06:18:18;;;;;;;61.53;28.45;;;4.30;99.90;;;;;;5021900;28;20060;-60
2021/11/27 06:20:44;;;;;;;53.85;26.38;;;4.30;99.90;;;;;;5012988;28;20045;-60
2021/11/27 06:23:10;;;;;;;56.47;28.73;;;4.30;99.90;;;;;;5011338;28;20053;-61
2021/11/27 06:25:37;;;;;;;58.55;27.85;;;4.30;99.90;;;;;;4995676;28;20115;-61
2021/11/27 06:28:03;;;;;;;60.53;29.40;;;4.30;99.90;;;;;;4995501;28;20100;-61
2021/11/27 06:30:29;;;;;;;60.65;29.55;;;4.30;99.90;;;;;;4997347;28;20481;-60
2021/11/27 06:32:55;;;;;;;58.92;28.60;;;4.40;99.90;;;;;;5011286;28;20077;-61
2021/11/27 06:35:21;;;;;;;56.10;28.45;;;4.40;99.90;;;;;;4979611;28;20056;-61
2021/11/27 06:37:48;;;;;;;61.55;28.40;;;4.40;99.90;;;;;;4978657;28;20136;-61
2021/11/27 06:40:14;;;;;;;54.55;27.55;;;4.40;99.90;;;;;;5029006;28;20107;-61
2021/11/27 06:43:06;;;;;;;;;;;4.40;99.90;;;;;;4996028;28;20257;-61
2021/11/27 06:46:05;;;;;;;62.78;29.30;;;4.40;99.90;;;;;;4974236;28;19944;-60
2021/11/27 06:48:31;;;;;;;58.67;26.95;;;4.40;99.90;;;;;;5031624;28;20041;-66
2021/11/27 06:50:57;;;;;;;61.47;29.10;;;4.50;99.90;;;;;;5031627;28;20501;-61
2021/11/27 06:53:23;;;;;;;53.05;28.20;;;4.40;99.90;;;;;;5022072;28;20045;-62
2021/11/27 06:55:49;;;;;;;52.75;26.55;;;4.50;99.90;;;;;;5035302;28;20128;-62
2021/11/27 06:58:16;;;;;;;59.15;28.02;;;4.50;99.90;;;;;;5014748;28;20045;-61
2021/11/27 07:00:58;;;;;;;;;;;4.40;99.90;;;;;;5001579;28;20053;-62
2021/11/27 07:03:47;;;;;;;52.33;26.35;;;4.40;99.90;;;;;;5029478;28;20406;-61
2021/11/27 07:06:31;;;;;;;55.53;25.73;;;4.40;99.90;;;;;;4988503;28;20081;-62
2021/11/27 07:08:58;;;;;;;58.30;28.77;;;4.40;99.90;;;;;;4998578;28;20049;-62
2021/11/27 07:11:50;;;;;;;59.85;26.83;;;4.40;99.90;;;;;;5024039;28;20120;-61
2021/11/27 07:14:16;;;;;;;61.00;27.70;;;4.40;99.90;;;;;;4989673;28;20274;-61
2021/11/27 07:16:43;;;;;;;56.67;27.38;;;4.40;99.90;;;;;;4994923;28;20089;-62
2021/11/27 07:19:09;;;;;;;57.67;28.35;;;4.50;99.90;;;;;;5012595;28;20464;-62
2021/11/27 07:21:36;;;;;;;60.95;28.00;;;4.40;99.90;;;;;;5012552;28;20058;-62
2021/11/27 07:24:02;;;;;;;63.03;29.20;;;4.50;99.90;;;;;;5032335;28;20081;-61
2021/11/27 07:26:28;;;;;;;57.67;28.08;;;4.50;99.90;;;;;;4985765;28;20076;-62
2021/11/27 07:28:59;;;;;;;57.58;28.25;;;4.50;99.90;;;;;;5015178;28;20057;-62
2021/11/27 07:31:26;;;;;;;64.35;28.38;;;4.50;99.90;;;;;;5030850;28;20111;-62
2021/11/27 07:33:53;;;;;;;58.95;27.75;;;4.50;99.90;;;;;;5030828;28;20134;-62
2021/11/27 07:36:19;;;;;;;55.45;27.90;;;4.60;99.90;;;;;;5014475;28;20046;-61
2021/11/27 07:38:45;;;;;;;59.45;28.48;;;4.60;99.90;;;;;;5030823;28;20067;-60
2021/11/27 07:41:12;;;;;;;55.58;26.75;;;4.60;99.90;;;;;;5014133;28;20115;-62
2021/11/27 07:43:39;;;;;;;60.55;27.17;;;4.60;99.90;;;;;;5031501;28;20053;-63
2021/11/27 07:46:11;;;;;;;56.40;26.50;;;4.60;99.90;;;;;;5030968;28;20566;-62
2021/11/27 07:48:56;;;;;;;58.65;26.80;;;4.70;99.90;;;;;;5022744;28;20052;-62
2021/11/27 07:51:41;;;;;;;62.92;27.77;;;4.70;99.90;;;;;;5031750;28;20057;-62
2021/11/27 07:54:11;;;;;;;54.55;26.70;;;4.70;99.90;;;;;;4997548;28;20042;-62
2021/11/27 07:56:38;;;;;;;50.30;24.88;;;4.70;99.90;;;;;;5013796;28;20076;-61
2021/11/27 07:59:05;;;;;;;54.63;26.05;;;4.70;99.90;;;;;;5030319;28;20696;-61
2021/11/27 08:01:33;;;;;;;66.57;28.25;;;4.80;99.90;;;;;;5026721;28;20057;-61
2021/11/27 08:04:02;;;;;;;50.25;24.98;;;4.80;99.90;;;;;;5031740;28;20460;-59
2021/11/27 08:06:28;;;;;;;55.72;26.67;;;4.80;99.90;;;;;;5029837;28;20510;-62
2021/11/27 08:08:55;;;;;;;51.10;24.73;;;4.80;99.90;;;;;;4997418;28;20061;-62
2021/11/27 08:11:24;;;;;;;44.20;22.23;;;4.90;99.90;;;;;;5031564;28;20103;-62
2021/11/27 08:13:51;;;;;;;43.50;23.23;;;4.90;99.90;;;;;;5013484;28;20099;-62
2021/11/27 08:16:18;;;;;;;41.53;23.27;;;4.90;99.90;;;;;;5013904;28;20072;-62
2021/11/27 08:18:46;;;;;;;32.80;19.08;;;4.90;99.90;;;;;;5023062;28;20064;-62
2021/11/27 08:21:13;;;;;;;33.55;19.25;;;5.00;99.90;;;;;;5009978;28;20041;-61
2021/11/27 08:23:39;;;;;;;27.45;17.17;;;4.90;99.90;;;;;;5013573;28;20492;-62
2021/11/27 08:26:06;;;;;;;31.60;18.17;;;5.00;99.90;;;;;;5031556;28;20061;-62
2021/11/27 08:28:33;;;;;;;26.75;15.88;;;5.00;99.90;;;;;;5031556;28;20050;-62
2021/11/27 08:30:59;;;;;;;25.65;16.90;;;5.00;99.90;;;;;;5031514;28;20131;-59
2021/11/27 08:33:25;;;;;;;21.33;12.90;;;5.00;99.90;;;;;;4997175;28;20045;-64
2021/11/27 08:35:51;;;;;;;22.70;13.82;;;5.00;99.90;;;;;;5029791;28;20077;-65
2021/11/27 08:38:17;;;;;;;20.05;11.55;;;5.00;99.90;;;;;;5013367;28;20041;-65
2021/11/27 08:40:44;;;;;;;22.60;11.65;;;5.00;99.90;;;;;;5013129;28;20623;-65
2021/11/27 08:43:11;;;;;;;19.48;11.30;;;5.00;99.90;;;;;;5012527;28;20088;-65
2021/11/27 08:45:41;;;;;;;18.65;11.20;;;5.00;99.90;;;;;;5030393;28;20057;-60
2021/11/27 08:48:07;;;;;;;16.77;10.32;;;5.00;99.90;;;;;;5030643;28;20515;-61
2021/11/27 08:50:34;;;;;;;14.60;10.77;;;5.00;99.90;;;;;;5014251;28;20053;-61
2021/11/27 08:53:00;;;;;;;21.42;12.57;;;5.10;99.90;;;;;;4993093;28;20092;-61
2021/11/27 08:55:27;;;;;;;20.90;12.60;;;5.10;99.90;;;;;;4993131;28;20050;-62
2021/11/27 08:57:53;;;;;;;24.17;11.85;;;5.20;99.90;;;;;;5011262;28;20508;-61
2021/11/27 09:00:20;;;;;;;19.85;12.27;;;5.20;99.90;;;;;;5012543;28;20389;-61
2021/11/27 09:02:46;;;;;;;19.90;12.48;;;5.20;99.90;;;;;;4996724;28;20045;-65
2021/11/27 09:05:13;;;;;;;14.57;9.35;;;5.20;99.90;;;;;;5031162;28;20041;-61
2021/11/27 09:07:39;;;;;;;14.68;8.90;;;5.20;99.90;;;;;;5032545;28;20053;-62
2021/11/27 09:10:07;;;;;;;12.43;7.28;;;5.20;99.90;;;;;;4996625;28;20497;-62
2021/11/27 09:12:34;;;;;;;10.27;7.50;;;5.20;99.90;;;;;;5012115;28;20049;-64
2021/11/27 09:15:01;;;;;;;10.77;7.45;;;5.10;99.90;;;;;;5028823;28;20048;-65
2021/11/27 09:17:27;;;;;;;10.40;6.38;;;5.20;99.90;;;;;;5034421;28;20095;-62
2021/11/27 09:19:53;;;;;;;9.63;6.28;;;5.10;99.90;;;;;;4996142;28;20041;-65
2021/11/27 09:22:19;;;;;;;10.48;6.55;;;5.10;99.90;;;;;;5030197;28;20056;-66
2021/11/27 09:24:45;;;;;;;7.85;6.65;;;5.10;99.90;;;;;;4994489;28;20050;-65
2021/11/27 09:27:11;;;;;;;8.52;6.00;;;5.10;99.90;;;;;;4996287;28;20053;-65
2021/11/27 09:29:39;;;;;;;7.40;5.90;;;5.10;99.90;;;;;;5028950;28;20053;-65
2021/11/27 09:32:06;;;;;;;8.07;5.93;;;5.10;99.90;;;;;;5028783;28;20123;-65
2021/11/27 09:34:33;;;;;;;9.05;5.25;;;5.00;99.90;;;;;;5029679;28;20041;-64
2021/11/27 09:37:01;;;;;;;9.50;7.10;;;5.00;99.90;;;;;;5025387;28;20122;-61
2021/11/27 09:39:27;;;;;;;8.98;6.50;;;5.00;99.90;;;;;;4993840;28;20404;-66
2021/11/27 09:41:54;;;;;;;9.65;6.43;;;5.00;99.90;;;;;;5013193;28;20049;-65
2021/11/27 09:44:20;;;;;;;7.03;6.13;;;5.00;99.90;;;;;;5028451;28;20076;-61
2021/11/27 09:46:47;;;;;;;10.88;6.20;;;5.10;99.90;;;;;;4995800;28;20089;-61
2021/11/27 09:49:21;;;;;;;8.73;5.53;;;5.00;99.90;;;;;;5012008;28;20045;-65
2021/11/27 09:51:52;;;;;;;9.52;6.32;;;5.00;99.90;;;;;;5029881;28;20049;-66
2021/11/27 09:54:19;;;;;;;9.00;6.97;;;5.10;99.90;;;;;;5029422;28;20045;-65
2021/11/27 09:56:48;;;;;;;10.85;7.07;;;5.00;99.90;;;;;;5011698;28;20084;-61
2021/11/27 09:59:16;;;;;;;8.48;6.68;;;5.00;99.90;;;;;;4997972;28;20064;-61
2021/11/27 10:01:45;;;;;;;9.60;7.68;;;5.00;99.90;;;;;;5030268;28;20056;-61
2021/11/27 10:04:12;;;;;;;8.90;7.72;;;5.00;99.90;;;;;;5024791;28;20042;-59
2021/11/27 10:06:44;;;;;;;9.30;7.82;;;5.00;99.90;;;;;;4985230;28;20046;-61
2021/11/27 10:09:19;;;;;;;13.00;8.73;;;5.00;99.90;;;;;;5027372;28;20053;-61
2021/11/27 10:11:47;;;;;;;9.35;8.35;;;5.00;99.90;;;;;;5010710;28;20049;-65
2021/11/27 10:14:15;;;;;;;11.35;9.30;;;5.00;99.90;;;;;;4975671;28;20132;-65
2021/11/27 10:17:05;;;;;;;24.50;20.27;;;5.00;99.90;;;;;;5008169;28;20054;-69
2021/11/27 10:19:45;;;;;;;14.20;10.43;;;5.00;99.90;;;;;;5029529;28;20053;-70
2021/11/27 10:22:14;;;;;;;14.00;10.60;;;5.10;99.90;;;;;;5029710;28;20112;-69
2021/11/27 10:24:41;;;;;;;12.98;10.95;;;5.00;99.90;;;;;;4994559;28;20060;-71
2021/11/27 10:27:28;;;;;;;12.00;10.80;;;5.00;99.90;;;;;;5011295;28;20077;-71
2021/11/27 10:30:11;;;;;;;14.98;11.35;;;4.90;99.90;;;;;;5009675;28;20089;-65
2021/11/27 10:32:43;;;;;;;13.07;11.48;;;4.90;99.90;;;;;;4983141;28;20050;-65
2021/11/27 10:35:16;;;;;;;13.77;11.70;;;4.80;99.90;;;;;;5011607;28;20053;-71
2021/11/27 10:37:47;;;;;;;16.35;12.65;;;4.80;99.90;;;;;;5010883;28;20046;-65
2021/11/27 10:40:25;;;;;;;14.23;12.60;;;4.80;99.90;;;;;;5011093;28;20142;-69
2021/11/27 10:42:54;;;;;;;13.15;11.82;;;4.80;99.90;;;;;;4990462;28;20064;-70
2021/11/27 10:45:23;;;;;;;12.63;11.30;;;4.70;99.90;;;;;;4993700;28;20057;-71
2021/11/27 10:47:52;;;;;;;13.15;11.70;;;4.80;99.90;;;;;;4992147;28;20092;-71
2021/11/27 10:50:22;;;;;;;14.70;10.80;;;4.80;99.90;;;;;;5014356;28;20184;-71
2021/11/27 10:52:51;;;;;;;14.90;10.63;;;4.70;99.90;;;;;;5011477;28;20535;-61
2021/11/27 10:55:19;;;;;;;15.95;11.32;;;4.70;99.90;;;;;;5018451;28;20184;-71
2021/11/27 10:57:46;;;;;;;12.07;10.65;;;4.70;99.90;;;;;;4973418;28;20064;-72
2021/11/27 11:00:35;;;;;;;16.30;11.10;;;4.70;99.90;;;;;;4994448;28;20050;-72
2021/11/27 11:03:04;;;;;;;10.10;9.00;;;4.60;99.90;;;;;;5011188;28;20045;-72
2021/11/27 11:05:40;;;;;;;14.55;10.30;;;4.60;99.90;;;;;;5011025;28;20049;-71
2021/11/27 11:08:07;;;;;;;13.32;9.77;;;4.60;99.90;;;;;;4994622;28;20054;-72
2021/11/27 11:10:39;;;;;;;11.90;10.05;;;4.60;99.90;;;;;;4979039;28;20060;-73
2021/11/27 11:13:11;;;;;;;12.98;10.05;;;4.60;99.90;;;;;;5008831;28;20033;-73
2021/11/27 11:15:44;;;;;;;14.25;10.80;;;4.60;99.90;;;;;;4994291;28;20504;-73
2021/11/27 11:18:25;;;;;;;10.15;8.85;;;4.60;99.90;;;;;;4961925;28;20049;-73
2021/11/27 11:20:56;;;;;;;10.40;8.18;;;4.50;99.90;;;;;;5010805;28;20088;-72
2021/11/27 11:23:30;;;;;;;13.38;9.27;;;4.50;99.90;;;;;;5027281;28;20038;-73
2021/11/27 11:26:00;;;;;;;9.52;8.52;;;4.50;99.90;;;;;;4994323;28;20053;-74
2021/11/27 11:28:30;;;;;;;10.52;8.60;;;4.50;99.90;;;;;;5009659;28;20052;-64
2021/11/27 11:31:01;;;;;;;10.90;9.23;;;4.40;99.90;;;;;;5010516;28;20095;-59
2021/11/27 11:33:28;;;;;;;8.77;7.22;;;4.50;99.90;;;;;;4994723;28;20565;-65
2021/11/27 11:35:54;;;;;;;9.00;7.82;;;4.50;99.90;;;;;;5011297;28;20045;-66
2021/11/27 11:38:21;;;;;;;8.10;6.75;;;4.50;99.90;;;;;;4997755;28;20400;-70
2021/11/27 11:40:48;;;;;;;7.30;6.25;;;4.40;99.90;;;;;;5011434;28;20049;-70
2021/11/27 11:43:14;;;;;;;7.03;5.35;;;4.40;99.90;;;;;;4979815;28;20041;-68
2021/11/27 11:45:41;;;;;;;7.00;4.90;;;4.40;99.90;;;;;;5013034;28;20053;-68
2021/11/27 11:48:08;;;;;;;7.63;4.60;;;4.40;99.90;;;;;;5014004;28;20903;-67
2021/11/27 11:50:42;;;;;;;5.25;4.65;;;4.40;99.90;;;;;;4997069;28;20050;-67
2021/11/27 11:53:32;;;;;;;3.97;3.55;;;4.40;99.90;;;;;;5014580;28;20049;-68
2021/11/27 11:56:03;;;;;;;4.97;3.72;;;4.40;99.90;;;;;;5031705;28;20076;-66
2021/11/27 11:58:33;;;;;;;6.35;3.00;;;4.30;99.90;;;;;;5013542;28;20053;-66
2021/11/27 12:01:03;;;;;;;4.75;2.53;;;4.30;99.90;;;;;;5013970;28;20053;-66
2021/11/27 12:03:35;;;;;;;2.55;2.28;;;4.30;99.90;;;;;;5014153;28;20060;-67
2021/11/27 12:06:03;;;;;;;;;;;4.20;99.90;;;;;;5032374;28;20045;-66
2021/11/27 12:08:48;;;;;;;3.65;2.60;;;4.20;99.90;;;;;;5012295;28;19925;-67
2021/11/27 12:11:42;;;;;;;3.85;3.10;;;4.20;99.90;;;;;;5013584;28;20077;-68
2021/11/27 12:14:26;;;;;;;3.97;3.40;;;4.10;99.90;;;;;;5012288;28;20064;-59
2021/11/27 12:17:13;;;;;;;7.07;3.90;;;4.20;99.90;;;;;;5011909;28;20072;-70
2021/11/27 12:19:45;;;;;;;4.00;3.40;;;4.20;99.90;;;;;;5030316;28;20045;-70
2021/11/27 12:22:20;;;;;;;4.35;3.45;;;4.20;99.90;;;;;;4991204;28;20046;-71
2021/11/27 12:25:20;;;;;;;4.65;3.08;;;4.20;99.90;;;;;;5013913;28;20053;-68
2021/11/27 12:28:08;;;;;;;3.50;2.63;;;4.20;99.90;;;;;;5012715;28;20057;-68
2021/11/27 12:30:41;;;;;;;3.88;2.80;;;4.20;99.90;;;;;;5010292;28;20753;-69
2021/11/27 12:33:07;;;;;;;3.55;2.60;;;4.20;99.90;;;;;;4978349;28;20053;-69
2021/11/27 12:35:34;;;;;;;4.63;2.72;;;4.20;99.90;;;;;;4994933;28;20046;-69
2021/11/27 12:38:12;;;;;;;4.60;3.65;;;4.10;99.90;;;;;;5011813;28;20077;-65
2021/11/27 12:40:48;;;;;;;6.13;4.07;;;4.20;99.90;;;;;;5011080;28;20111;-64
2021/11/27 12:43:17;;;;;;;5.90;3.03;;;4.20;99.90;;;;;;4994854;28;20068;-66
2021/11/27 12:45:46;;;;;;;3.97;3.17;;;4.20;99.90;;;;;;5015877;28;20424;-65
2021/11/27 12:48:39;;;;;;;4.80;3.35;;;4.10;99.90;;;;;;4993306;28;20045;-65
2021/11/27 12:51:19;;;;;;;3.55;2.92;;;4.20;99.90;;;;;;5017075;28;20060;-65
2021/11/27 12:54:01;;;;;;;4.07;3.67;;;4.10;99.90;;;;;;4993199;28;20050;-65
2021/11/27 12:56:29;;;;;;;4.20;3.38;;;4.10;99.90;;;;;;4992768;28;20053;-65